Time;durP1;ratioP1;P1;durP2;ratioP2;P2;SDS_P1;SDS_P2;PMS_P1;PMS_P2;Temp;Humidity;BMP_temperature;BMP_pressure;BME280_temperature;BME280_humidity;BME280_pressure;Samples;Min_cycle;Max_cycle;Signal;HPM_P1;HPM_P2
2022/06/16 00:01:45;;;;;;;12.88;11.50;;;13.50;99.90;;;;;;5062672;28;20476;-44
2022/06/16 00:04:11;;;;;;;11.25;9.48;;;13.50;99.90;;;;;;5061996;28;20557;-43
2022/06/16 00:06:37;;;;;;;12.18;10.88;;;13.50;99.90;;;;;;5062053;28;20045;-44
2022/06/16 00:09:03;;;;;;;11.98;9.98;;;13.50;99.90;;;;;;5061307;28;20055;-44
2022/06/16 00:11:29;;;;;;;12.30;9.82;;;13.40;99.90;;;;;;5062694;28;20049;-42
2022/06/16 00:13:55;;;;;;;11.15;10.02;;;13.30;99.90;;;;;;5061919;28;20056;-43
2022/06/16 00:16:22;;;;;;;12.65;9.98;;;13.10;99.90;;;;;;5043038;28;20040;-43
2022/06/16 00:18:49;;;;;;;10.60;9.35;;;13.20;99.90;;;;;;5061669;28;20098;-44
2022/06/16 00:21:19;;;;;;;11.65;10.15;;;13.20;99.90;;;;;;5061862;28;20041;-45
2022/06/16 00:23:45;;;;;;;11.05;9.63;;;13.20;99.90;;;;;;5062841;28;20586;-43
2022/06/16 00:26:20;;;;;;;13.70;9.40;;;13.20;99.90;;;;;;5061576;28;20053;-43
2022/06/16 00:28:46;;;;;;;10.40;8.90;;;13.10;99.90;;;;;;5060979;28;20052;-44
2022/06/16 00:31:14;;;;;;;12.00;9.27;;;13.00;99.90;;;;;;5041395;28;20091;-43
2022/06/16 00:33:40;;;;;;;13.18;9.38;;;12.90;99.90;;;;;;5061236;28;20045;-43
2022/06/16 00:36:07;;;;;;;10.68;9.43;;;12.80;99.90;;;;;;5063103;28;20131;-44
2022/06/16 00:38:33;;;;;;;13.43;10.07;;;12.70;99.90;;;;;;5064255;28;20048;-46
2022/06/16 00:40:59;;;;;;;9.65;8.02;;;12.70;99.90;;;;;;5062313;28;20055;-51
2022/06/16 00:43:25;;;;;;;11.15;8.68;;;12.70;99.90;;;;;;5060634;28;20053;-44
2022/06/16 00:45:59;;;;;;;9.57;8.48;;;12.70;99.90;;;;;;5061555;28;20052;-42
2022/06/16 00:48:31;;;;;;;12.40;9.00;;;12.70;99.90;;;;;;5061214;28;20028;-45
2022/06/16 00:51:17;;;;;;;11.55;9.38;;;12.80;99.90;;;;;;5061584;28;20497;-43
2022/06/16 00:53:44;;;;;;;15.15;9.40;;;12.80;99.90;;;;;;5061088;28;20051;-44
2022/06/16 00:56:15;;;;;;;12.07;8.05;;;12.80;99.90;;;;;;5043088;28;20056;-43
2022/06/16 00:58:43;;;;;;;11.77;8.80;;;12.90;99.90;;;;;;5054252;28;20162;-44
2022/06/16 01:01:10;;;;;;;11.68;8.93;;;12.80;99.90;;;;;;5024636;28;20060;-43
2022/06/16 01:06:29;;;;;;;10.73;8.80;;;12.90;99.90;;;;;;5060594;28;20553;-43
2022/06/16 01:09:03;;;;;;;12.30;9.20;;;12.90;99.90;;;;;;5060634;28;20048;-44
2022/06/16 01:14:43;;;;;;;10.88;9.60;;;13.00;99.90;;;;;;5059957;28;20624;-44
2022/06/16 01:17:23;;;;;;;10.70;9.40;;;13.10;99.90;;;;;;5060548;28;20052;-44
2022/06/16 01:20:04;;;;;;;13.23;9.02;;;13.10;99.90;;;;;;5059657;28;20067;-44
2022/06/16 01:23:04;;;;;;;11.65;9.30;;;13.00;99.90;;;;;;5060749;28;20304;-45
2022/06/16 01:25:44;;;;;;;12.35;9.50;;;13.00;99.90;;;;;;5059174;28;20048;-46
2022/06/16 01:28:25;;;;;;;15.15;10.07;;;13.10;99.90;;;;;;5060842;28;20048;-47
2022/06/16 01:31:28;;;;;;;13.25;10.07;;;13.00;99.90;;;;;;5041542;28;20126;-42
2022/06/16 01:34:06;;;;;;;12.15;9.48;;;13.00;99.90;;;;;;4958479;28;20517;-42
2022/06/16 01:36:52;;;;;;;17.67;10.13;;;13.10;99.90;;;;;;4958028;28;20472;-45
2022/06/16 01:39:34;;;;;;;14.07;9.65;;;13.10;99.90;;;;;;4942301;28;20058;-44
2022/06/16 01:42:13;;;;;;;14.70;9.85;;;13.10;99.90;;;;;;4947216;28;20130;-44
2022/06/16 01:44:55;;;;;;;13.55;9.98;;;13.10;99.90;;;;;;4959133;28;20490;-44
2022/06/16 01:47:23;;;;;;;11.52;10.15;;;13.00;99.90;;;;;;4958918;28;20051;-44
2022/06/16 01:50:00;;;;;;;10.20;9.30;;;13.00;99.90;;;;;;4959536;28;20605;-45
2022/06/16 01:52:40;;;;;;;11.95;10.40;;;13.00;99.90;;;;;;4964895;28;20141;-46
2022/06/16 01:55:11;;;;;;;14.10;10.30;;;13.00;99.90;;;;;;4960284;28;20058;-43
2022/06/16 01:57:49;;;;;;;11.20;9.73;;;13.00;99.90;;;;;;4959710;28;20425;-44
2022/06/16 02:00:19;;;;;;;11.98;10.75;;;13.00;99.90;;;;;;4942713;28;20054;-43
2022/06/16 02:02:53;;;;;;;13.40;10.20;;;13.00;99.90;;;;;;4957330;28;20446;-45
2022/06/16 02:05:21;;;;;;;12.27;10.52;;;12.90;99.90;;;;;;4941539;28;20407;-44
2022/06/16 02:08:04;;;;;;;12.70;11.38;;;12.90;99.90;;;;;;5004511;28;20061;-45
2022/06/16 02:10:38;;;;;;;17.23;10.35;;;12.90;99.90;;;;;;5059236;28;20455;-42
2022/06/16 02:13:06;;;;;;;14.38;10.57;;;13.00;99.90;;;;;;5059962;28;20505;-43
2022/06/16 02:15:54;;;;;;;12.43;10.45;;;12.90;99.90;;;;;;5060376;28;20049;-45
2022/06/16 02:18:34;;;;;;;11.32;9.88;;;12.90;99.90;;;;;;5060514;28;20470;-42
2022/06/16 02:21:18;;;;;;;11.65;9.52;;;12.80;99.90;;;;;;5041746;28;20060;-45
2022/06/16 02:23:45;;;;;;;10.23;9.18;;;12.80;99.90;;;;;;5060286;28;20530;-45
2022/06/16 02:26:12;;;;;;;13.85;9.18;;;12.70;99.90;;;;;;5032275;28;20056;-43
2022/06/16 02:28:55;;;;;;;11.25;9.05;;;12.70;99.90;;;;;;5059411;28;20086;-45
2022/06/16 02:31:42;;;;;;;9.98;9.00;;;12.60;99.90;;;;;;5059782;28;20520;-43
2022/06/16 02:34:33;;;;;;;12.75;10.00;;;12.60;99.90;;;;;;5060426;28;20213;-44
2022/06/16 02:37:08;;;;;;;13.18;9.25;;;12.50;99.90;;;;;;5040919;28;20140;-44
2022/06/16 02:39:45;;;;;;;13.10;9.60;;;12.50;99.90;;;;;;5062377;28;20461;-44
2022/06/16 02:42:43;;;;;;;11.15;10.00;;;12.50;99.90;;;;;;5063263;28;20309;-42
2022/06/16 02:45:29;;;;;;;14.10;11.40;;;12.50;99.90;;;;;;5057311;28;20048;-42
2022/06/16 02:48:07;;;;;;;14.90;10.48;;;12.30;99.90;;;;;;5063688;28;20083;-46
2022/06/16 02:51:01;;;;;;;11.95;10.73;;;12.30;99.90;;;;;;5062969;28;20466;-43
2022/06/16 02:54:13;;;;;;;13.27;11.43;;;12.30;99.90;;;;;;5043904;28;20447;-43
2022/06/16 02:56:55;;;;;;;15.77;12.00;;;12.20;99.90;;;;;;4950063;28;20401;-45
2022/06/16 02:59:35;;;;;;;12.25;10.77;;;12.10;99.90;;;;;;4961963;28;20051;-44
2022/06/16 03:02:06;;;;;;;12.57;11.25;;;12.00;99.90;;;;;;4961100;28;20079;-43
2022/06/16 03:04:38;;;;;;;14.00;10.77;;;12.00;99.90;;;;;;4964360;28;20105;-43
2022/06/16 03:07:04;;;;;;;11.68;10.52;;;11.90;99.90;;;;;;4964421;28;20522;-43
2022/06/16 03:09:30;;;;;;;15.75;11.13;;;11.90;99.90;;;;;;4945583;28;20922;-43
2022/06/16 03:11:57;;;;;;;17.05;10.05;;;11.80;99.90;;;;;;4960575;28;20046;-46
2022/06/16 03:14:24;;;;;;;13.65;10.38;;;11.80;99.90;;;;;;4961390;28;20058;-43
2022/06/16 03:16:55;;;;;;;13.68;11.05;;;11.80;99.90;;;;;;4965749;28;20050;-43
2022/06/16 03:19:22;;;;;;;13.27;10.95;;;11.80;99.90;;;;;;4979801;28;20054;-43
2022/06/16 03:21:48;;;;;;;13.15;11.30;;;11.70;99.90;;;;;;4979724;28;20222;-43
2022/06/16 03:24:14;;;;;;;13.27;10.98;;;11.70;99.90;;;;;;4980676;28;20046;-43
2022/06/16 03:26:39;;;;;;;14.27;11.68;;;11.70;99.90;;;;;;4981059;28;20069;-44
2022/06/16 03:29:05;;;;;;;14.63;12.23;;;11.70;99.90;;;;;;4978849;28;20061;-44
2022/06/16 03:31:31;;;;;;;13.43;11.18;;;11.80;99.90;;;;;;4979601;28;20068;-44
2022/06/16 03:33:57;;;;;;;15.05;11.80;;;11.80;99.90;;;;;;5042125;28;20077;-45
2022/06/16 03:36:22;;;;;;;13.48;12.02;;;11.80;99.90;;;;;;5062951;28;20523;-44
2022/06/16 03:38:48;;;;;;;21.35;12.98;;;11.90;99.90;;;;;;5060492;28;20048;-43
2022/06/16 03:41:14;;;;;;;14.18;11.05;;;11.90;99.90;;;;;;5057398;28;20048;-43
2022/06/16 03:43:40;;;;;;;18.60;11.70;;;12.00;99.90;;;;;;5061732;28;20048;-44
2022/06/16 03:46:06;;;;;;;14.00;11.75;;;12.10;99.90;;;;;;5057900;28;20136;-43
2022/06/16 03:48:32;;;;;;;13.35;11.50;;;12.10;99.90;;;;;;5061519;28;20040;-45
2022/06/16 03:50:58;;;;;;;13.18;11.88;;;12.20;99.90;;;;;;5062418;28;20175;-44
2022/06/16 03:53:24;;;;;;;14.55;11.80;;;12.20;99.90;;;;;;5061420;28;20649;-44
2022/06/16 03:55:50;;;;;;;14.05;11.82;;;12.20;99.90;;;;;;5058858;28;20049;-44
2022/06/16 03:58:16;;;;;;;18.08;11.98;;;12.30;99.90;;;;;;5059592;28;20498;-43
2022/06/16 04:00:41;;;;;;;16.42;11.93;;;12.50;99.90;;;;;;5059974;28;20470;-43
2022/06/16 04:05:53;;;;;;;12.77;11.48;;;12.60;99.90;;;;;;5062106;28;20127;-45
2022/06/16 04:08:20;;;;;;;11.32;10.02;;;12.50;99.90;;;;;;5059011;28;20060;-43
2022/06/16 04:10:46;;;;;;;13.07;11.20;;;12.60;99.90;;;;;;5060048;28;20054;-44
2022/06/16 04:13:14;;;;;;;12.75;11.55;;;12.60;99.90;;;;;;5062269;28;20048;-44
2022/06/16 04:15:40;;;;;;;13.43;11.55;;;12.60;99.90;;;;;;5063502;28;20048;-43
2022/06/16 04:18:07;;;;;;;16.75;11.93;;;12.60;99.90;;;;;;5064788;28;20749;-45
2022/06/16 04:20:33;;;;;;;15.35;11.48;;;12.70;99.90;;;;;;5061856;28;20056;-43
2022/06/16 04:22:59;;;;;;;13.60;11.93;;;12.80;99.90;;;;;;5062147;28;20063;-45
2022/06/16 04:25:32;;;;;;;13.38;11.20;;;12.90;99.90;;;;;;5063081;28;20044;-46
2022/06/16 04:28:03;;;;;;;12.75;11.20;;;13.00;99.90;;;;;;5061835;28;20445;-44
2022/06/16 04:30:29;;;;;;;12.15;10.23;;;13.10;99.90;;;;;;5060647;28;20094;-42
2022/06/16 04:32:57;;;;;;;13.10;10.85;;;13.30;99.90;;;;;;5042973;28;20489;-44
2022/06/16 04:35:23;;;;;;;12.30;10.82;;;13.40;99.90;;;;;;5041950;28;20126;-44
2022/06/16 04:37:49;;;;;;;12.80;10.77;;;13.50;99.90;;;;;;5042898;28;20052;-48
2022/06/16 04:40:15;;;;;;;12.23;10.88;;;13.60;99.90;;;;;;5036167;28;20056;-43
2022/06/16 04:42:40;;;;;;;12.05;10.60;;;13.60;99.90;;;;;;5061236;28;20041;-44
2022/06/16 04:45:10;;;;;;;15.05;11.57;;;13.60;99.90;;;;;;5042501;28;20114;-45
2022/06/16 04:47:37;;;;;;;12.20;10.98;;;13.60;99.90;;;;;;5060669;28;20459;-47
2022/06/16 04:50:03;;;;;;;14.50;11.93;;;13.60;99.90;;;;;;5042334;28;20136;-44
2022/06/16 04:52:28;;;;;;;12.30;10.85;;;13.60;99.90;;;;;;5059526;28;20044;-43
2022/06/16 04:54:54;;;;;;;13.55;12.02;;;13.60;99.90;;;;;;5061143;28;20040;-45
2022/06/16 04:57:20;;;;;;;13.23;11.82;;;13.60;99.90;;;;;;5061068;28;20055;-43
2022/06/16 04:59:45;;;;;;;14.38;11.13;;;13.60;99.90;;;;;;5060383;28;20530;-45
2022/06/16 05:02:11;;;;;;;20.48;11.93;;;13.70;99.90;;;;;;5060490;28;20044;-45
2022/06/16 05:04:41;;;;;;;14.23;11.02;;;13.80;99.90;;;;;;5042815;28;20056;-44
2022/06/16 05:07:07;;;;;;;17.25;11.10;;;13.90;99.90;;;;;;5042614;28;20171;-44
2022/06/16 05:09:34;;;;;;;12.43;10.75;;;14.10;99.90;;;;;;5059995;28;20547;-43
2022/06/16 05:12:00;;;;;;;13.80;9.82;;;14.20;99.90;;;;;;5044542;28;20547;-44
2022/06/16 05:14:26;;;;;;;19.23;9.77;;;14.50;99.90;;;;;;5060869;28;20052;-45
2022/06/16 05:16:52;;;;;;;13.50;10.48;;;14.60;99.90;;;;;;5060984;28;20123;-43
2022/06/16 05:19:18;;;;;;;12.10;10.85;;;14.80;99.90;;;;;;5060066;28;20056;-44
2022/06/16 05:21:45;;;;;;;13.77;11.70;;;14.90;99.90;;;;;;5060792;28;20202;-44
2022/06/16 05:24:11;;;;;;;12.45;10.60;;;15.10;99.90;;;;;;5060239;28;20491;-44
2022/06/16 05:26:39;;;;;;;14.10;10.65;;;15.30;99.90;;;;;;5060743;28;20071;-43
2022/06/16 05:29:05;;;;;;;12.35;10.63;;;15.60;99.90;;;;;;5061247;28;20561;-45
2022/06/16 05:31:31;;;;;;;12.60;10.40;;;15.60;99.90;;;;;;5064847;28;20052;-47
2022/06/16 05:33:56;;;;;;;11.90;10.90;;;15.60;99.90;;;;;;5045166;28;20090;-46
2022/06/16 05:36:23;;;;;;;11.15;9.88;;;16.10;99.90;;;;;;5061419;28;20040;-45
2022/06/16 05:38:48;;;;;;;12.68;10.07;;;17.60;99.90;;;;;;5041686;28;20056;-45
2022/06/16 05:41:16;;;;;;;10.30;9.32;;;19.20;99.90;;;;;;5060528;28;20074;-44
2022/06/16 05:43:43;;;;;;;11.43;8.95;;;20.60;99.90;;;;;;5059555;28;20040;-45
2022/06/16 05:46:21;;;;;;;13.23;9.38;;;21.90;99.90;;;;;;5060142;28;20408;-46
2022/06/16 05:48:47;;;;;;;10.45;8.18;;;23.10;99.90;;;;;;5060122;28;20487;-47
2022/06/16 05:51:15;;;;;;;9.90;8.65;;;23.90;99.90;;;;;;5061002;28;20491;-46
2022/06/16 05:53:42;;;;;;;9.68;7.60;;;24.50;99.70;;;;;;5061297;28;20063;-46
2022/06/16 05:56:08;;;;;;;8.48;7.40;;;25.10;99.10;;;;;;5044599;28;20134;-46
2022/06/16 05:58:35;;;;;;;7.95;6.80;;;25.50;97.00;;;;;;5037894;28;20052;-46
2022/06/16 06:01:02;;;;;;;8.60;6.05;;;25.90;97.00;;;;;;5057191;28;20044;-45
2022/06/16 06:03:28;;;;;;;8.65;6.90;;;26.50;95.50;;;;;;5060001;28;20804;-47
2022/06/16 06:05:54;;;;;;;10.50;6.35;;;26.40;94.40;;;;;;5059710;28;20040;-46
2022/06/16 06:16:39;;;;;;;7.95;5.00;;;27.20;93.00;;;;;;5063142;28;20157;-46
2022/06/16 06:19:23;;;;;;;8.18;4.85;;;27.30;92.10;;;;;;5063436;28;20132;-45
2022/06/16 06:21:58;;;;;;;8.73;4.45;;;27.50;90.80;;;;;;5058704;28;20053;-45
2022/06/16 06:24:24;;;;;;;8.23;4.55;;;28.10;90.00;;;;;;5065792;28;20088;-45
2022/06/16 06:26:51;;;;;;;6.30;4.88;;;28.00;90.30;;;;;;5046327;28;20123;-45
2022/06/16 06:29:16;;;;;;;8.32;5.15;;;28.30;89.70;;;;;;5063224;28;20052;-47
2022/06/16 06:31:42;;;;;;;8.38;5.47;;;29.00;90.20;;;;;;5063038;28;20592;-47
2022/06/16 06:34:08;;;;;;;7.68;4.88;;;29.30;89.70;;;;;;5046184;28;20052;-45
2022/06/16 06:36:34;;;;;;;7.88;5.30;;;28.80;88.80;;;;;;5044850;28;20427;-47
2022/06/16 06:39:00;;;;;;;9.88;5.22;;;29.40;88.70;;;;;;5059550;28;20381;-46
2022/06/16 06:41:26;;;;;;;6.72;4.43;;;29.80;87.60;;;;;;5045470;28;20041;-46
2022/06/16 06:43:52;;;;;;;6.82;4.85;;;30.30;86.60;;;;;;5046356;28;20098;-45
2022/06/16 06:46:18;;;;;;;6.60;4.32;;;30.10;85.10;;;;;;5061964;28;20342;-46
2022/06/16 06:48:44;;;;;;;6.05;3.90;;;29.70;84.20;;;;;;5047696;28;20349;-48
2022/06/16 06:51:11;;;;;;;7.03;4.00;;;29.70;85.00;;;;;;5063505;28;20147;-47
2022/06/16 06:53:37;;;;;;;6.40;3.53;;;30.20;83.60;;;;;;5062797;28;20764;-46
2022/06/16 06:56:03;;;;;;;6.40;4.07;;;30.40;83.20;;;;;;5044632;28;20048;-49
2022/06/16 06:58:32;;;;;;;5.72;3.83;;;30.70;82.10;;;;;;5062431;28;20135;-45
2022/06/16 07:01:01;;;;;;;6.30;4.15;;;30.90;81.60;;;;;;5062078;28;20123;-47
2022/06/16 07:03:30;;;;;;;5.78;3.88;;;30.00;80.70;;;;;;5037940;28;20159;-46
2022/06/16 07:05:56;;;;;;;4.97;3.25;;;30.10;82.40;;;;;;5060894;28;20244;-47
2022/06/16 07:08:22;;;;;;;7.75;3.22;;;30.00;80.80;;;;;;5062351;28;20558;-47
2022/06/16 07:10:47;;;;;;;5.95;2.72;;;30.10;81.30;;;;;;5061171;28;20056;-46
2022/06/16 07:13:13;;;;;;;4.50;2.45;;;30.30;78.10;;;;;;5027339;28;20501;-46
2022/06/16 07:15:40;;;;;;;3.67;2.70;;;30.40;78.70;;;;;;5062735;28;20045;-46
2022/06/16 07:18:06;;;;;;;8.48;3.63;;;30.10;79.30;;;;;;5043318;28;20046;-46
2022/06/16 07:20:33;;;;;;;5.53;3.13;;;30.10;78.90;;;;;;5042631;28;20374;-46
2022/06/16 07:22:59;;;;;;;6.55;3.42;;;29.80;75.90;;;;;;5060306;28;20048;-45
2022/06/16 07:25:27;;;;;;;4.75;2.97;;;29.60;77.50;;;;;;5063450;28;20048;-46
2022/06/16 07:27:53;;;;;;;6.60;2.75;;;29.30;77.70;;;;;;5060476;28;20499;-46
2022/06/16 07:30:21;;;;;;;4.70;2.72;;;28.10;79.10;;;;;;5061161;28;20044;-45
2022/06/16 07:32:47;;;;;;;5.60;2.70;;;27.60;79.70;;;;;;5059510;28;20419;-46
2022/06/16 07:35:20;;;;;;;6.38;1.67;;;26.70;80.50;;;;;;5062450;28;20051;-45
2022/06/16 07:37:46;;;;;;;3.83;1.85;;;26.60;77.40;;;;;;5061996;28;20106;-45
2022/06/16 07:40:13;;;;;;;3.40;1.90;;;26.50;78.30;;;;;;5061455;28;20040;-47
2022/06/16 07:42:40;;;;;;;4.95;1.80;;;26.30;75.60;;;;;;5061592;28;20109;-46
2022/06/16 07:45:06;;;;;;;4.95;1.90;;;26.20;77.20;;;;;;5061608;28;20036;-46
2022/06/16 07:47:32;;;;;;;2.90;1.83;;;26.00;78.00;;;;;;5043229;28;20392;-46
2022/06/16 07:50:01;;;;;;;4.57;2.35;;;25.80;79.00;;;;;;5061966;28;20044;-49
2022/06/16 07:52:26;;;;;;;4.22;2.10;;;25.50;77.90;;;;;;5061906;28;20048;-46
2022/06/16 07:54:52;;;;;;;8.10;2.70;;;25.70;79.80;;;;;;5059808;28;20075;-45
2022/06/16 07:57:19;;;;;;;3.22;2.60;;;25.40;78.70;;;;;;5062506;28;20059;-45
2022/06/16 07:59:48;;;;;;;6.80;2.78;;;25.50;80.70;;;;;;5040422;28;20144;-46
2022/06/16 08:02:14;;;;;;;5.95;3.05;;;25.30;78.60;;;;;;5061279;28;20499;-46
2022/06/16 08:04:40;;;;;;;4.00;2.40;;;25.10;79.70;;;;;;5043209;28;20040;-45
2022/06/16 08:07:05;;;;;;;6.28;3.53;;;25.10;82.20;;;;;;5061344;28;20044;-47
2022/06/16 08:09:33;;;;;;;4.82;2.88;;;25.20;81.00;;;;;;5060946;28;20047;-46
2022/06/16 08:12:08;;;;;;;5.38;3.08;;;25.00;80.10;;;;;;5060585;28;20086;-48
2022/06/16 08:14:45;;;;;;;8.00;3.65;;;24.40;80.10;;;;;;5061410;28;20055;-45
2022/06/16 08:17:18;;;;;;;6.72;2.55;;;24.50;81.70;;;;;;5061735;28;20059;-47
2022/06/16 08:19:43;;;;;;;6.47;2.65;;;24.20;81.70;;;;;;5061577;28;20418;-45
2022/06/16 08:22:09;;;;;;;6.78;2.92;;;24.20;81.80;;;;;;5061061;28;20036;-44
2022/06/16 08:24:35;;;;;;;4.25;2.97;;;24.40;83.30;;;;;;5063189;28;20155;-45
2022/06/16 08:27:01;;;;;;;4.82;3.17;;;23.80;82.40;;;;;;5058532;28;20094;-46
2022/06/16 08:29:27;;;;;;;7.13;3.58;;;23.80;83.20;;;;;;5060113;28;20045;-45
2022/06/16 08:31:53;;;;;;;5.60;3.40;;;23.50;82.70;;;;;;5061735;28;20531;-45
2022/06/16 08:34:19;;;;;;;5.65;3.20;;;23.40;83.30;;;;;;5060559;28;20048;-46
2022/06/16 08:36:44;;;;;;;6.10;4.05;;;23.60;83.80;;;;;;5060816;28;20109;-44
2022/06/16 08:39:10;;;;;;;6.65;3.47;;;23.60;84.40;;;;;;5056253;28;20102;-44
2022/06/16 08:41:54;;;;;;;8.57;3.38;;;23.60;84.40;;;;;;5050328;28;20489;-45
2022/06/16 08:44:28;;;;;;;7.85;3.50;;;23.70;85.90;;;;;;5030832;28;20048;-45
2022/06/16 08:47:15;;;;;;;5.18;4.50;;;24.00;86.40;;;;;;5051843;28;20052;-45
2022/06/16 08:50:22;;;;;;;6.45;3.75;;;23.80;85.20;;;;;;5049397;28;20578;-46
2022/06/16 08:53:02;;;;;;;7.65;4.00;;;23.90;85.90;;;;;;5046990;28;20037;-44
2022/06/16 08:56:00;;;;;;;5.97;3.60;;;23.60;85.10;;;;;;5051002;28;20082;-45
2022/06/16 08:58:36;;;;;;;6.03;4.00;;;23.90;86.10;;;;;;5047396;28;20154;-44
2022/06/16 09:01:10;;;;;;;6.55;3.85;;;24.00;87.10;;;;;;5052275;28;20055;-45
2022/06/16 09:03:56;;;;;;;5.20;3.33;;;24.10;85.70;;;;;;5047596;28;20131;-45
2022/06/16 09:06:43;;;;;;;7.90;4.43;;;24.30;85.80;;;;;;5052142;28;20037;-44
2022/06/16 09:10:16;;;;;;;10.10;4.68;;;24.50;84.40;;;;;;5052405;28;20113;-47
2022/06/16 09:13:09;;;;;;;6.78;4.28;;;24.40;86.00;;;;;;4978695;28;20046;-44
2022/06/16 09:15:56;;;;;;;8.88;5.10;;;24.50;83.50;;;;;;4978673;28;20482;-49
2022/06/16 09:19:17;;;;;;;8.85;5.03;;;24.30;84.20;;;;;;4978456;28;20413;-45
2022/06/16 09:22:08;;;;;;;6.95;5.25;;;24.00;83.10;;;;;;4900940;29;20570;-46
2022/06/16 09:24:51;;;;;;;6.47;5.43;;;24.00;85.00;;;;;;4903501;29;20467;-46
2022/06/16 09:27:25;;;;;;;6.25;5.18;;;24.30;83.90;;;;;;4902091;29;20538;-45
2022/06/16 09:30:19;;;;;;;6.78;5.57;;;24.40;83.10;;;;;;4905175;29;20451;-44
2022/06/16 09:33:00;;;;;;;9.18;5.47;;;24.30;85.80;;;;;;4901175;29;20581;-44
2022/06/16 09:35:42;;;;;;;7.28;5.20;;;24.30;84.10;;;;;;4901788;29;20051;-44
2022/06/16 09:38:23;;;;;;;12.60;5.63;;;24.30;86.10;;;;;;4901530;29;20170;-45
2022/06/16 09:41:02;;;;;;;7.00;5.20;;;24.40;86.20;;;;;;4881544;29;20064;-44
2022/06/16 09:43:45;;;;;;;7.55;4.95;;;24.10;82.90;;;;;;4902016;29;20541;-44
2022/06/16 09:46:18;;;;;;;7.30;4.45;;;24.00;84.50;;;;;;4926756;28;20054;-45
2022/06/16 09:48:57;;;;;;;8.88;5.10;;;24.20;87.60;;;;;;4946418;28;20054;-45
2022/06/16 09:51:45;;;;;;;9.45;5.25;;;24.60;86.20;;;;;;4961536;28;20405;-46
2022/06/16 09:54:29;;;;;;;8.82;5.30;;;24.50;84.10;;;;;;4963276;28;20120;-46
2022/06/16 09:57:05;;;;;;;5.93;4.88;;;24.60;82.80;;;;;;4993803;28;20056;-44
2022/06/16 09:59:43;;;;;;;9.38;5.32;;;24.70;85.50;;;;;;5064171;28;20059;-44
2022/06/16 10:02:33;;;;;;;7.35;5.45;;;24.70;86.10;;;;;;5064884;28;20163;-46
2022/06/16 10:04:59;;;;;;;6.70;5.20;;;24.70;84.00;;;;;;5064334;28;20087;-47
2022/06/16 10:07:41;;;;;;;7.40;4.70;;;24.50;84.10;;;;;;5064244;28;20463;-45
2022/06/16 10:10:19;;;;;;;7.20;4.63;;;24.50;86.20;;;;;;5063444;28;20076;-44
2022/06/16 10:12:57;;;;;;;8.98;4.90;;;24.50;87.10;;;;;;5062765;28;20171;-46
2022/06/16 10:15:28;;;;;;;6.57;4.05;;;24.70;87.30;;;;;;5064043;28;20090;-45
2022/06/16 10:17:55;;;;;;;6.03;4.40;;;24.90;86.40;;;;;;5064157;28;20380;-46
2022/06/16 10:20:21;;;;;;;7.35;4.03;;;24.80;85.20;;;;;;5064106;28;20453;-45
2022/06/16 10:23:08;;;;;;;7.82;4.88;;;24.60;85.10;;;;;;5063483;28;20217;-46
2022/06/16 10:25:42;;;;;;;8.52;5.15;;;24.90;85.90;;;;;;5060954;28;20052;-47
2022/06/16 10:28:20;;;;;;;5.95;5.30;;;25.00;85.80;;;;;;5063633;28;20048;-45
2022/06/16 10:30:46;;;;;;;6.30;4.95;;;24.80;82.10;;;;;;5062881;28;20076;-45
2022/06/16 10:33:23;;;;;;;9.27;5.03;;;24.50;87.90;;;;;;5064507;28;20071;-44
2022/06/16 10:35:57;;;;;;;5.95;5.07;;;24.40;86.20;;;;;;5064544;28;20051;-46
2022/06/16 10:38:32;;;;;;;6.72;5.65;;;24.70;86.70;;;;;;5065963;28;20041;-46
2022/06/16 10:41:01;;;;;;;9.43;5.60;;;24.50;84.70;;;;;;5065650;28;20553;-47
2022/06/16 10:43:29;;;;;;;9.63;4.78;;;24.70;85.20;;;;;;5058002;28;20147;-49
2022/06/16 10:46:07;;;;;;;7.20;3.97;;;24.60;84.80;;;;;;5063762;28;20091;-46
2022/06/16 10:48:44;;;;;;;8.57;5.35;;;24.50;87.00;;;;;;5042819;28;20053;-46
2022/06/16 10:51:24;;;;;;;6.82;4.60;;;24.50;85.20;;;;;;5062352;28;20094;-46
2022/06/16 10:54:14;;;;;;;5.45;4.13;;;24.90;86.20;;;;;;5064338;28;20056;-45
2022/06/16 10:56:40;;;;;;;8.18;4.20;;;25.00;85.20;;;;;;5063249;28;20040;-47
2022/06/16 10:59:17;;;;;;;6.72;4.40;;;25.10;85.50;;;;;;5061259;28;20287;-45
2022/06/16 11:01:59;;;;;;;9.20;4.18;;;25.20;84.00;;;;;;5062267;28;20741;-46
2022/06/16 11:04:33;;;;;;;9.30;4.00;;;24.90;83.20;;;;;;5063701;28;20056;-46
2022/06/16 11:07:01;;;;;;;5.55;4.60;;;24.90;84.10;;;;;;5062965;28;20538;-45
2022/06/16 11:09:30;;;;;;;6.78;4.35;;;24.70;85.60;;;;;;5062894;28;20091;-46
2022/06/16 11:12:05;;;;;;;7.00;4.18;;;24.90;85.10;;;;;;5062650;28;20113;-44
2022/06/16 11:14:41;;;;;;;7.25;4.25;;;25.00;84.80;;;;;;5056274;28;20044;-45
2022/06/16 11:17:10;;;;;;;6.32;3.60;;;25.10;85.20;;;;;;5062708;28;20071;-46
2022/06/16 11:19:43;;;;;;;6.82;4.25;;;25.20;83.30;;;;;;5062114;28;20056;-45
2022/06/16 11:22:31;;;;;;;7.38;4.28;;;25.10;81.90;;;;;;5062494;28;20491;-44
2022/06/16 11:25:03;;;;;;;8.18;3.90;;;25.10;83.70;;;;;;5064072;28;20086;-44
2022/06/16 11:27:40;;;;;;;6.75;4.63;;;25.10;84.80;;;;;;5062719;28;20130;-45
2022/06/16 11:30:30;;;;;;;7.28;4.05;;;25.00;87.10;;;;;;5062169;28;20679;-46
2022/06/16 11:32:56;;;;;;;7.82;4.28;;;24.90;85.40;;;;;;5062082;28;20445;-46
2022/06/16 11:35:32;;;;;;;5.75;4.25;;;24.90;83.90;;;;;;5045349;28;20435;-45
2022/06/16 11:38:23;;;;;;;7.80;3.67;;;24.90;83.00;;;;;;5062033;28;20319;-47
2022/06/16 11:40:57;;;;;;;6.43;4.20;;;25.00;85.00;;;;;;5061583;28;20060;-46
2022/06/16 11:43:35;;;;;;;6.43;4.35;;;25.10;80.80;;;;;;5062378;28;20257;-45
2022/06/16 11:46:32;;;;;;;7.72;4.63;;;25.20;82.40;;;;;;5061738;28;20644;-45
2022/06/16 11:49:16;;;;;;;11.05;4.53;;;25.40;84.40;;;;;;5061068;28;20098;-45
2022/06/16 11:51:58;;;;;;;8.10;4.57;;;25.50;84.50;;;;;;5061765;28;20059;-44
2022/06/16 11:54:53;;;;;;;6.35;4.63;;;25.40;84.10;;;;;;5061787;28;20063;-45
2022/06/16 11:57:25;;;;;;;7.95;4.90;;;25.50;86.30;;;;;;5056776;28;20044;-46
2022/06/16 11:59:56;;;;;;;8.63;4.90;;;25.60;84.70;;;;;;5062337;28;20048;-49
2022/06/16 12:02:59;;;;;;;5.80;3.72;;;25.70;83.60;;;;;;5062890;28;20049;-46
2022/06/16 12:05:35;;;;;;;8.93;5.45;;;25.60;83.90;;;;;;5061660;28;20567;-46
2022/06/16 12:08:01;;;;;;;8.30;5.55;;;25.80;83.00;;;;;;5039852;28;20060;-46
2022/06/16 12:10:30;;;;;;;7.45;4.68;;;26.00;85.80;;;;;;5066633;28;20051;-47
2022/06/16 12:13:25;;;;;;;10.50;5.85;;;26.20;86.80;;;;;;5062456;28;20051;-46
2022/06/16 12:16:06;;;;;;;7.65;5.85;;;26.40;85.40;;;;;;5061667;28;20048;-47
2022/06/16 12:18:48;;;;;;;8.60;5.10;;;26.40;84.10;;;;;;5061406;28;20495;-45
2022/06/16 12:21:37;;;;;;;7.65;6.30;;;26.40;85.80;;;;;;5060815;28;20051;-44
2022/06/16 12:24:06;;;;;;;6.82;5.70;;;26.40;83.90;;;;;;5064023;28;20182;-45
2022/06/16 12:26:41;;;;;;;7.72;5.80;;;26.20;86.20;;;;;;5061611;28;20118;-45
2022/06/16 12:29:12;;;;;;;7.32;4.97;;;26.00;84.60;;;;;;5047546;28;20442;-47
2022/06/16 12:31:57;;;;;;;7.70;4.28;;;25.70;84.20;;;;;;5061124;28;20185;-46
2022/06/16 12:34:28;;;;;;;6.35;5.30;;;25.70;85.40;;;;;;5061256;28;20044;-46
2022/06/16 12:36:58;;;;;;;5.67;5.13;;;25.80;86.00;;;;;;5060914;28;20166;-45
2022/06/16 12:39:35;;;;;;;5.95;4.95;;;25.90;84.20;;;;;;5060041;28;20051;-47
2022/06/16 12:42:08;;;;;;;8.18;5.85;;;25.90;86.20;;;;;;5060378;28;20036;-45
2022/06/16 12:44:49;;;;;;;7.43;5.60;;;25.80;85.00;;;;;;5060263;28;20078;-45
2022/06/16 12:47:25;;;;;;;11.60;4.90;;;25.70;83.30;;;;;;5054726;28;20064;-46
2022/06/16 12:50:12;;;;;;;9.82;6.40;;;25.90;86.70;;;;;;5060770;28;20540;-44
2022/06/16 12:52:51;;;;;;;8.27;5.85;;;25.90;83.50;;;;;;5057162;28;20052;-45
2022/06/16 12:55:29;;;;;;;8.48;5.80;;;25.70;83.90;;;;;;5059876;28;20566;-46
2022/06/16 12:58:20;;;;;;;7.45;5.38;;;25.30;85.10;;;;;;5058929;28;20400;-44
2022/06/16 13:00:57;;;;;;;7.55;5.60;;;25.10;85.70;;;;;;5060393;28;20056;-45
2022/06/16 13:03:28;;;;;;;10.57;6.10;;;24.60;84.20;;;;;;5061498;28;20044;-44
2022/06/16 13:05:57;;;;;;;8.70;4.85;;;24.70;85.80;;;;;;5060888;28;20110;-45
2022/06/16 13:08:27;;;;;;;10.18;5.63;;;24.60;86.80;;;;;;5060276;28;20051;-45
2022/06/16 13:10:57;;;;;;;8.23;5.15;;;24.70;87.10;;;;;;5060527;28;20430;-44
2022/06/16 13:13:28;;;;;;;6.15;5.18;;;24.90;87.00;;;;;;5060707;28;20051;-46
2022/06/16 13:15:59;;;;;;;7.03;5.43;;;24.90;86.70;;;;;;5060125;28;20495;-47
2022/06/16 13:18:29;;;;;;;8.77;4.95;;;24.60;85.10;;;;;;5060221;28;20080;-47
2022/06/16 13:21:00;;;;;;;9.25;5.30;;;24.70;87.90;;;;;;5060094;28;20040;-46
2022/06/16 13:23:38;;;;;;;7.57;5.17;;;24.70;87.40;;;;;;5063324;28;20093;-46
2022/06/16 13:26:25;;;;;;;7.88;4.97;;;24.70;85.60;;;;;;5061062;28;20283;-48
2022/06/16 13:29:00;;;;;;;8.57;5.10;;;24.70;86.50;;;;;;5056344;28;20408;-45